Time;durP1;ratioP1;P1;durP2;ratioP2;P2;SDS_P1;SDS_P2;PMS_P1;PMS_P2;Temp;Humidity;BMP_temperature;BMP_pressure;BME280_temperature;BME280_humidity;BME280_pressure;Samples;Min_cycle;Max_cycle;Signal;HPM_P1;HPM_P2
2021/03/02 00:02:25;;;;;;;6.55;4.47;;;15.50;60.90;;;;;;4955784;28;20023;-61
2021/03/02 00:04:51;;;;;;;5.13;3.80;;;15.70;61.00;;;;;;4955703;28;20030;-61
2021/03/02 00:07:17;;;;;;;6.72;3.78;;;15.40;60.80;;;;;;4974307;28;20058;-61
2021/03/02 00:09:43;;;;;;;5.75;4.00;;;15.70;61.00;;;;;;4955751;28;20023;-61
2021/03/02 00:12:09;;;;;;;5.40;3.70;;;15.40;60.80;;;;;;4973358;28;20030;-61
2021/03/02 00:14:36;;;;;;;6.13;4.15;;;15.40;60.90;;;;;;4973272;28;20117;-61
2021/03/02 00:17:05;;;;;;;5.50;3.65;;;15.40;60.80;;;;;;4973353;28;20030;-61
2021/03/02 00:19:40;;;;;;;5.60;4.03;;;15.40;60.80;;;;;;4973048;28;20041;-61
2021/03/02 00:22:27;;;;;;;4.93;4.00;;;15.40;60.80;;;;;;4973120;28;20091;-61
2021/03/02 00:24:57;;;;;;;5.88;4.47;;;15.40;60.80;;;;;;4973161;28;20031;-61
2021/03/02 00:27:23;;;;;;;6.45;3.95;;;15.30;60.80;;;;;;4972893;28;20393;-61
2021/03/02 00:29:50;;;;;;;6.63;4.40;;;15.30;60.80;;;;;;4955432;28;20025;-61
2021/03/02 00:32:20;;;;;;;4.93;4.20;;;15.30;60.80;;;;;;4972902;28;20117;-62
2021/03/02 00:34:46;;;;;;;5.55;3.90;;;15.30;60.80;;;;;;4956013;28;20027;-61
2021/03/02 00:37:12;;;;;;;7.43;4.32;;;15.30;60.80;;;;;;4973019;28;20438;-61
2021/03/02 00:39:38;;;;;;;5.03;3.80;;;15.30;60.80;;;;;;4972900;28;20047;-61
2021/03/02 00:42:03;;;;;;;6.03;3.95;;;15.20;60.80;;;;;;4972704;28;20362;-61
2021/03/02 00:44:29;;;;;;;5.93;3.97;;;15.30;60.90;;;;;;4973045;28;20030;-61
2021/03/02 00:46:55;;;;;;;8.40;4.28;;;15.20;60.80;;;;;;4973056;28;20030;-61
2021/03/02 00:49:20;;;;;;;5.88;4.20;;;15.20;60.80;;;;;;4972642;28;20031;-61
2021/03/02 00:51:46;;;;;;;6.35;4.90;;;15.20;60.80;;;;;;4976631;28;20034;-61
2021/03/02 00:54:11;;;;;;;6.03;3.67;;;15.20;60.80;;;;;;4959127;28;20548;-61
2021/03/02 00:56:37;;;;;;;6.55;3.78;;;15.30;60.90;;;;;;4976352;28;20110;-61
2021/03/02 00:59:03;;;;;;;5.78;3.88;;;15.00;60.70;;;;;;4958806;28;20034;-61
2021/03/02 01:01:28;;;;;;;5.32;3.85;;;15.10;60.80;;;;;;4976212;28;20026;-61
2021/03/02 01:03:54;;;;;;;6.20;4.28;;;15.10;60.80;;;;;;4958854;28;20030;-61
2021/03/02 01:06:19;;;;;;;6.43;4.43;;;15.10;60.70;;;;;;4976815;28;20121;-61
2021/03/02 01:08:45;;;;;;;6.57;4.22;;;15.10;60.70;;;;;;4976174;28;20474;-61
2021/03/02 01:11:10;;;;;;;4.43;3.95;;;15.10;60.70;;;;;;4976006;28;20031;-61
2021/03/02 01:13:36;;;;;;;6.32;4.60;;;15.10;60.70;;;;;;4976022;28;20043;-61
2021/03/02 01:16:02;;;;;;;7.55;4.53;;;15.00;60.60;;;;;;4976040;28;20042;-61
2021/03/02 01:18:28;;;;;;;5.75;4.25;;;;;;;;;;4975962;28;20034;-61
2021/03/02 01:20:54;;;;;;;6.68;4.53;;;15.00;60.00;;;;;;4975927;28;20081;-61
2021/03/02 01:23:20;;;;;;;5.97;4.40;;;15.10;60.70;;;;;;4975836;28;20043;-61
2021/03/02 01:25:46;;;;;;;6.00;4.30;;;15.10;60.70;;;;;;4975846;28;20037;-61
2021/03/02 01:28:12;;;;;;;7.15;4.53;;;;;;;;;;4975700;28;20035;-61
2021/03/02 01:30:38;;;;;;;5.55;4.00;;;15.00;60.00;;;;;;4975692;28;20032;-61
2021/03/02 01:33:03;;;;;;;6.35;4.18;;;15.00;60.60;;;;;;4975786;28;20126;-61
2021/03/02 01:35:29;;;;;;;5.47;3.95;;;14.90;60.50;;;;;;4975612;28;20027;-61
2021/03/02 01:37:55;;;;;;;6.30;4.10;;;14.90;60.60;;;;;;4975533;28;20501;-61
2021/03/02 01:40:20;;;;;;;9.15;4.63;;;14.90;60.60;;;;;;4958174;28;20027;-61
2021/03/02 01:42:46;;;;;;;5.88;4.28;;;14.90;60.50;;;;;;4975289;28;20053;-61
2021/03/02 01:45:16;;;;;;;7.47;4.72;;;14.90;61.30;;;;;;4975716;28;20018;-61
2021/03/02 01:47:50;;;;;;;4.78;4.05;;;14.90;60.60;;;;;;4958264;28;20034;-61
2021/03/02 01:50:17;;;;;;;5.90;3.67;;;14.90;60.60;;;;;;4975320;28;20042;-61
2021/03/02 01:52:42;;;;;;;5.55;4.13;;;14.90;60.60;;;;;;4975258;28;20039;-61
2021/03/02 01:55:08;;;;;;;5.28;4.40;;;14.90;60.50;;;;;;4957901;28;20389;-61
2021/03/02 01:57:35;;;;;;;6.15;4.38;;;14.90;60.60;;;;;;4975207;28;20074;-61
2021/03/02 02:00:03;;;;;;;5.85;3.72;;;14.80;60.50;;;;;;4975098;28;20046;-61
2021/03/02 02:02:40;;;;;;;6.47;4.68;;;14.80;60.50;;;;;;4974987;28;20031;-61
2021/03/02 02:05:08;;;;;;;5.93;4.35;;;14.70;60.50;;;;;;4975107;28;20094;-61
2021/03/02 02:07:39;;;;;;;4.80;3.80;;;14.80;60.60;;;;;;4975716;28;20059;-61
2021/03/02 02:10:14;;;;;;;5.88;4.22;;;14.80;60.60;;;;;;4975206;28;20050;-61
2021/03/02 02:12:44;;;;;;;6.50;4.20;;;14.80;60.60;;;;;;4957962;28;20046;-61
2021/03/02 02:15:19;;;;;;;5.53;4.43;;;14.80;60.50;;;;;;4958016;28;20026;-61
2021/03/02 02:18:00;;;;;;;4.93;3.80;;;14.80;60.50;;;;;;4974908;28;20023;-61
2021/03/02 02:20:31;;;;;;;;;;;14.70;60.40;;;;;;4975390;28;20071;-61
2021/03/02 02:23:03;;;;;;;6.03;4.20;;;14.70;60.40;;;;;;4974756;28;19917;-61
2021/03/02 02:25:44;;;;;;;6.00;3.92;;;14.70;60.40;;;;;;4974658;28;20027;-61
2021/03/02 02:28:12;;;;;;;6.90;4.63;;;14.70;60.40;;;;;;4974703;28;20470;-61
2021/03/02 02:30:43;;;;;;;6.22;4.22;;;14.70;60.40;;;;;;4974737;28;20179;-61
2021/03/02 02:33:12;;;;;;;7.28;4.60;;;14.70;60.40;;;;;;4974699;28;20126;-61
2021/03/02 02:35:43;;;;;;;6.38;4.53;;;14.70;60.40;;;;;;4974702;28;20019;-61
2021/03/02 02:38:10;;;;;;;5.40;4.10;;;14.60;60.30;;;;;;4974765;28;20023;-61
2021/03/02 02:40:37;;;;;;;6.00;4.20;;;14.60;60.40;;;;;;4974770;28;20022;-61
2021/03/02 02:43:03;;;;;;;9.63;5.10;;;14.60;60.30;;;;;;4974377;28;20037;-61
2021/03/02 02:45:30;;;;;;;5.60;4.35;;;14.50;60.30;;;;;;4974393;28;20026;-61
2021/03/02 02:47:56;;;;;;;5.63;4.50;;;14.60;60.30;;;;;;4974259;28;20381;-61
2021/03/02 02:50:24;;;;;;;8.10;4.55;;;14.50;60.20;;;;;;4974567;28;20103;-61
2021/03/02 02:52:51;;;;;;;6.40;4.78;;;14.60;60.30;;;;;;4974226;28;20042;-61
2021/03/02 02:55:18;;;;;;;6.47;4.65;;;14.60;60.20;;;;;;4973933;28;20389;-61
2021/03/02 02:57:48;;;;;;;5.63;4.38;;;14.30;60.10;;;;;;4957322;28;20023;-61
2021/03/02 03:00:16;;;;;;;6.22;4.50;;;14.60;79.80;;;;;;4974097;28;20045;-61
2021/03/02 03:02:46;;;;;;;8.00;4.90;;;14.50;60.20;;;;;;4974167;28;20499;-61
2021/03/02 03:05:16;;;;;;;6.07;4.32;;;14.50;60.20;;;;;;4974046;28;20015;-61
2021/03/02 03:07:47;;;;;;;5.97;4.50;;;14.50;60.10;;;;;;4975131;28;20105;-61
2021/03/02 03:10:12;;;;;;;;;;;14.50;60.10;;;;;;4974484;28;20358;-61
2021/03/02 03:12:47;;;;;;;5.40;4.25;;;14.50;60.10;;;;;;4973447;28;19921;-61
2021/03/02 03:15:17;;;;;;;5.72;4.70;;;14.50;60.20;;;;;;4973608;28;20046;-61
2021/03/02 03:17:50;;;;;;;7.13;4.35;;;14.60;80.60;;;;;;4956200;28;20066;-61
2021/03/02 03:20:18;;;;;;;7.20;5.03;;;14.50;60.20;;;;;;4956565;28;20478;-61
2021/03/02 03:22:51;;;;;;;6.50;4.60;;;14.50;60.10;;;;;;4956341;28;20041;-61
2021/03/02 03:25:24;;;;;;;6.82;4.57;;;14.30;60.70;;;;;;4973669;28;20034;-61
2021/03/02 03:27:55;;;;;;;5.57;4.38;;;14.50;60.10;;;;;;4973607;28;20058;-61
2021/03/02 03:30:23;;;;;;;7.13;5.07;;;14.40;60.10;;;;;;4973912;28;20023;-61
2021/03/02 03:32:58;;;;;;;5.90;4.47;;;14.40;60.00;;;;;;4973521;28;20035;-61
2021/03/02 03:35:24;;;;;;;6.35;4.60;;;14.40;60.00;;;;;;4973654;28;20558;-61
2021/03/02 03:37:50;;;;;;;5.57;4.28;;;14.40;60.10;;;;;;4973352;28;20035;-61
2021/03/02 03:40:16;;;;;;;5.40;4.25;;;14.60;60.10;;;;;;4973460;28;20033;-60
2021/03/02 03:42:41;;;;;;;5.88;4.22;;;14.50;60.10;;;;;;4932086;28;20030;-61
2021/03/02 03:45:07;;;;;;;8.00;4.68;;;14.40;60.00;;;;;;4973179;28;20080;-61
2021/03/02 03:47:34;;;;;;;7.03;4.88;;;14.40;60.00;;;;;;4955966;28;20482;-61
2021/03/02 03:50:00;;;;;;;5.70;4.30;;;14.40;60.00;;;;;;4973307;28;20268;-61
2021/03/02 03:52:26;;;;;;;6.13;4.38;;;14.30;60.00;;;;;;4973012;28;20532;-61
2021/03/02 03:54:54;;;;;;;6.82;4.68;;;14.40;60.00;;;;;;4955661;28;20019;-61
2021/03/02 03:57:21;;;;;;;5.75;4.82;;;14.30;59.90;;;;;;4973288;28;20035;-61
2021/03/02 03:59:47;;;;;;;5.43;4.10;;;14.30;59.90;;;;;;4973017;28;20038;-61
2021/03/02 04:02:14;;;;;;;6.70;4.40;;;14.30;59.90;;;;;;4955817;28;20022;-61
2021/03/02 04:04:40;;;;;;;5.88;4.78;;;14.30;59.90;;;;;;4973506;28;20061;-60
2021/03/02 04:07:07;;;;;;;5.72;4.35;;;14.30;59.90;;;;;;4974391;28;20129;-60
2021/03/02 04:09:34;;;;;;;6.28;4.78;;;14.20;59.80;;;;;;4972988;28;20037;-61
2021/03/02 04:12:00;;;;;;;6.40;4.47;;;14.30;59.90;;;;;;4973315;28;20035;-61
2021/03/02 04:14:30;;;;;;;8.20;4.68;;;14.30;59.90;;;;;;4973183;28;20407;-61
2021/03/02 04:16:56;;;;;;;6.70;4.60;;;14.20;59.80;;;;;;4973039;28;20592;-61
2021/03/02 04:19:22;;;;;;;5.97;4.60;;;14.20;59.80;;;;;;4955660;28;20121;-61
2021/03/02 04:21:47;;;;;;;6.03;4.85;;;14.00;59.70;;;;;;4973399;28;20510;-60
2021/03/02 04:24:13;;;;;;;6.25;4.65;;;14.20;59.80;;;;;;4974533;28;20138;-61
2021/03/02 04:26:38;;;;;;;7.88;4.85;;;14.20;59.80;;;;;;4976869;28;20051;-61
2021/03/02 04:29:04;;;;;;;5.55;4.53;;;14.20;59.80;;;;;;4976685;28;20031;-61
2021/03/02 04:31:29;;;;;;;7.28;4.85;;;14.20;59.80;;;;;;4959660;28;20102;-61
2021/03/02 04:33:55;;;;;;;6.35;4.22;;;14.20;59.80;;;;;;4976588;28;20039;-61
2021/03/02 04:36:20;;;;;;;8.05;4.82;;;14.20;59.80;;;;;;4976798;28;20359;-60
2021/03/02 04:38:46;;;;;;;6.70;4.95;;;14.20;59.70;;;;;;4959559;28;20057;-60
2021/03/02 04:41:12;;;;;;;7.15;4.88;;;14.10;59.70;;;;;;4976712;28;20074;-61
2021/03/02 04:43:38;;;;;;;4.93;4.13;;;14.20;59.80;;;;;;4976878;28;20074;-59
2021/03/02 04:46:04;;;;;;;8.23;5.63;;;14.00;59.60;;;;;;4976654;28;20378;-60
2021/03/02 04:48:29;;;;;;;6.70;4.30;;;14.10;59.70;;;;;;4976630;28;20371;-60
2021/03/02 04:50:55;;;;;;;6.90;5.15;;;14.10;59.70;;;;;;4976604;28;20034;-61
2021/03/02 04:53:21;;;;;;;8.05;5.25;;;14.10;59.70;;;;;;4976491;28;20038;-60
2021/03/02 04:55:46;;;;;;;6.57;4.25;;;14.10;59.70;;;;;;4976431;28;20072;-60
2021/03/02 04:58:12;;;;;;;6.78;4.45;;;14.10;59.70;;;;;;4976444;28;20069;-60
2021/03/02 05:00:37;;;;;;;5.22;4.18;;;14.10;59.70;;;;;;4976365;28;20022;-59
2021/03/02 05:03:03;;;;;;;7.10;4.70;;;14.10;59.80;;;;;;4976302;28;20035;-60
2021/03/02 05:05:29;;;;;;;5.95;4.57;;;14.00;59.70;;;;;;4976147;28;20023;-58
2021/03/02 05:07:54;;;;;;;6.35;4.82;;;14.00;59.60;;;;;;4977338;28;20055;-60
2021/03/02 05:10:20;;;;;;;6.95;5.07;;;14.00;59.70;;;;;;4976471;28;20030;-60
2021/03/02 05:12:45;;;;;;;5.95;4.72;;;14.00;59.70;;;;;;4976160;28;20109;-60
2021/03/02 05:15:12;;;;;;;7.45;5.50;;;14.00;59.60;;;;;;4976053;28;20034;-60
2021/03/02 05:17:37;;;;;;;8.50;5.57;;;14.00;59.60;;;;;;4976071;28;20034;-61
2021/03/02 05:20:04;;;;;;;6.55;4.97;;;14.00;59.60;;;;;;4976332;28;20114;-60
2021/03/02 05:22:30;;;;;;;6.70;4.90;;;14.00;59.60;;;;;;4958460;28;20386;-60
2021/03/02 05:24:55;;;;;;;6.68;5.22;;;13.70;59.50;;;;;;4975827;28;20110;-60
2021/03/02 05:27:21;;;;;;;6.13;4.47;;;14.00;59.60;;;;;;4976097;28;20041;-61
2021/03/02 05:29:47;;;;;;;5.10;4.43;;;13.90;59.50;;;;;;4975810;28;20437;-61
2021/03/02 05:32:12;;;;;;;6.82;5.00;;;13.70;59.40;;;;;;4976073;28;20031;-60
2021/03/02 05:34:38;;;;;;;7.78;4.63;;;14.00;59.60;;;;;;4975748;28;20042;-60
2021/03/02 05:37:03;;;;;;;7.38;5.13;;;13.90;59.60;;;;;;4974845;28;20023;-60
2021/03/02 05:39:29;;;;;;;7.70;4.53;;;13.90;59.50;;;;;;4976005;28;20105;-60
2021/03/02 05:41:55;;;;;;;6.35;4.45;;;13.90;59.60;;;;;;4975819;28;20110;-61
2021/03/02 05:44:21;;;;;;;8.60;4.95;;;13.90;59.60;;;;;;4975559;28;20117;-61
2021/03/02 05:46:47;;;;;;;6.45;4.70;;;13.90;59.50;;;;;;4958154;28;20542;-60
2021/03/02 05:49:14;;;;;;;7.30;5.65;;;13.90;59.60;;;;;;4975717;28;20026;-60
2021/03/02 05:51:41;;;;;;;8.00;5.50;;;13.90;59.60;;;;;;4975453;28;20077;-61
2021/03/02 05:54:11;;;;;;;8.80;5.25;;;13.90;59.60;;;;;;4975573;28;20073;-61
2021/03/02 05:56:40;;;;;;;8.02;5.32;;;13.90;59.60;;;;;;4975256;28;20615;-61
2021/03/02 05:59:07;;;;;;;7.00;4.80;;;13.90;59.70;;;;;;4975380;28;20034;-60
2021/03/02 06:01:33;;;;;;;7.07;5.10;;;13.90;59.70;;;;;;4957648;28;20426;-60
2021/03/02 06:03:58;;;;;;;6.32;4.47;;;13.90;59.80;;;;;;4957863;28;20161;-60
2021/03/02 06:06:24;;;;;;;5.88;4.80;;;13.90;60.20;;;;;;4974936;28;20023;-60
2021/03/02 06:08:50;;;;;;;5.55;4.43;;;14.00;60.40;;;;;;4976368;28;20050;-60
2021/03/02 06:11:25;;;;;;;5.20;3.85;;;14.10;60.20;;;;;;4974981;28;20092;-61
2021/03/02 06:13:51;;;;;;;6.38;4.60;;;14.30;60.20;;;;;;4974774;28;20042;-60
2021/03/02 06:16:17;;;;;;;6.68;4.18;;;15.80;60.30;;;;;;4974852;28;20030;-61
2021/03/02 06:18:50;;;;;;;4.88;3.92;;;14.60;59.40;;;;;;4974995;28;20477;-61
2021/03/02 06:21:16;;;;;;;5.03;3.72;;;14.70;59.70;;;;;;4975066;28;20105;-61
2021/03/02 06:23:50;;;;;;;4.88;4.30;;;14.70;59.50;;;;;;4975009;28;20502;-61
2021/03/02 06:26:25;;;;;;;7.25;4.60;;;14.80;59.60;;;;;;4974899;28;20378;-60
2021/03/02 06:28:57;;;;;;;6.07;4.60;;;14.60;59.30;;;;;;4974831;28;20058;-60
2021/03/02 06:31:41;;;;;;;6.90;4.18;;;14.90;59.20;;;;;;4974548;28;20065;-60
2021/03/02 06:34:19;;;;;;;7.07;4.13;;;15.00;59.20;;;;;;4974534;28;20764;-60
2021/03/02 06:36:53;;;;;;;5.97;4.18;;;15.00;58.90;;;;;;4967135;28;20109;-60
2021/03/02 06:39:31;;;;;;;6.05;4.65;;;15.00;58.80;;;;;;4974483;28;20393;-60
2021/03/02 06:42:09;;;;;;;7.00;3.70;;;15.00;58.70;;;;;;4974219;28;20023;-60
2021/03/02 06:44:35;;;;;;;5.80;4.43;;;15.10;58.70;;;;;;4974389;28;20022;-60
2021/03/02 06:47:01;;;;;;;5.47;3.90;;;14.80;78.70;;;;;;4973529;28;20034;-61
2021/03/02 06:49:44;;;;;;;6.90;4.80;;;14.90;58.50;;;;;;4973990;28;20035;-60
2021/03/02 06:52:20;;;;;;;6.65;5.13;;;15.00;58.50;;;;;;4974354;28;20035;-61
2021/03/02 06:54:47;;;;;;;9.05;5.25;;;15.10;58.20;;;;;;4956892;28;20023;-61
2021/03/02 06:57:20;;;;;;;6.45;4.78;;;15.00;58.20;;;;;;4974207;28;20074;-61
2021/03/02 06:59:57;;;;;;;6.07;4.50;;;15.00;58.40;;;;;;4956701;28;20386;-61
2021/03/02 07:02:35;;;;;;;6.75;4.82;;;15.10;58.40;;;;;;4973965;28;20038;-61
2021/03/02 07:05:16;;;;;;;8.38;5.43;;;15.00;58.30;;;;;;4973998;28;20034;-61
2021/03/02 07:07:42;;;;;;;;;;;15.10;58.50;;;;;;4975407;28;20204;-61
2021/03/02 07:10:27;;;;;;;7.93;5.07;;;15.10;58.30;;;;;;4819073;27;7775501;-57
2021/03/02 07:12:55;;;;;;;5.83;4.23;;;15.30;58.10;;;;;;5071188;28;20036;-61
2021/03/02 07:15:21;;;;;;;7.25;4.38;;;15.30;58.00;;;;;;5089363;28;20024;-61
2021/03/02 07:17:51;;;;;;;6.18;4.38;;;15.40;57.80;;;;;;5089214;28;20020;-62
2021/03/02 07:20:23;;;;;;;6.65;4.97;;;15.70;77.20;;;;;;5089010;28;20047;-62
2021/03/02 07:22:51;;;;;;;8.60;4.78;;;15.50;57.50;;;;;;5089494;28;20058;-62
2021/03/02 07:25:23;;;;;;;7.53;5.07;;;15.50;57.90;;;;;;5088976;28;20119;-60
2021/03/02 07:27:55;;;;;;;5.72;4.22;;;15.70;57.40;;;;;;5088455;28;20088;-61
2021/03/02 07:30:21;;;;;;;9.10;4.82;;;15.70;57.10;;;;;;5088303;28;20050;-60
2021/03/02 07:32:48;;;;;;;7.90;4.03;;;15.80;57.00;;;;;;5089023;28;20103;-61
2021/03/02 07:35:19;;;;;;;8.98;4.35;;;15.80;56.80;;;;;;5089049;28;20020;-61
2021/03/02 07:37:45;;;;;;;6.10;4.15;;;15.90;56.60;;;;;;5088969;28;20024;-61
2021/03/02 07:40:16;;;;;;;5.72;4.30;;;16.00;56.40;;;;;;5089162;28;20031;-60
2021/03/02 07:42:42;;;;;;;6.22;4.07;;;16.10;56.40;;;;;;5088805;28;20024;-61
2021/03/02 07:45:11;;;;;;;7.50;5.05;;;16.00;56.30;;;;;;5088859;28;20042;-61
2021/03/02 07:47:44;;;;;;;6.82;4.55;;;16.00;56.40;;;;;;5088809;28;20470;-61
2021/03/02 07:50:23;;;;;;;5.90;4.63;;;16.00;56.50;;;;;;5070603;28;20360;-61
2021/03/02 07:53:09;;;;;;;7.68;4.10;;;16.00;56.50;;;;;;5088936;28;20043;-61
2021/03/02 07:55:34;;;;;;;12.60;5.28;;;16.00;56.50;;;;;;5088358;28;20137;-61
2021/03/02 07:58:20;;;;;;;5.43;4.15;;;16.00;56.30;;;;;;5088743;28;20024;-62
2021/03/02 08:00:47;;;;;;;6.10;4.05;;;16.00;56.10;;;;;;5070218;28;20081;-61
2021/03/02 08:03:24;;;;;;;7.03;4.10;;;16.10;56.10;;;;;;5088340;28;20420;-61
2021/03/02 08:06:20;;;;;;;5.38;3.55;;;16.10;56.10;;;;;;5088475;28;20024;-61
2021/03/02 08:08:46;;;;;;;6.65;4.20;;;16.10;56.00;;;;;;5088819;27;20080;-60
2021/03/02 08:11:32;;;;;;;5.80;4.20;;;16.30;55.90;;;;;;5088155;28;20024;-61
2021/03/02 08:14:00;;;;;;;5.68;3.92;;;16.30;55.80;;;;;;5088082;28;20475;-60
2021/03/02 08:16:51;;;;;;;6.85;4.53;;;16.40;55.90;;;;;;5088163;28;20023;-60
2021/03/02 08:19:43;;;;;;;4.95;3.90;;;16.50;55.70;;;;;;5088261;28;20100;-61
2021/03/02 08:22:22;;;;;;;5.13;3.92;;;16.50;55.70;;;;;;5074361;28;20013;-60
2021/03/02 08:25:10;;;;;;;5.30;4.00;;;16.60;55.70;;;;;;5074409;28;20033;-61
2021/03/02 08:27:37;;;;;;;4.45;3.60;;;16.70;74.30;;;;;;5056509;28;20047;-61
2021/03/02 08:30:38;;;;;;;5.22;3.50;;;16.70;55.60;;;;;;5056208;28;20033;-61
2021/03/02 08:33:09;;;;;;;4.60;3.47;;;16.80;55.50;;;;;;5021527;28;20048;-61
2021/03/02 08:35:38;;;;;;;7.43;3.67;;;16.90;55.60;;;;;;5074385;28;20490;-61
2021/03/02 08:38:06;;;;;;;4.78;3.22;;;17.00;55.60;;;;;;5056368;28;20017;-61
2021/03/02 08:40:31;;;;;;;3.83;3.20;;;17.10;55.40;;;;;;5074187;28;20422;-61
2021/03/02 08:43:12;;;;;;;4.63;3.03;;;17.20;55.10;;;;;;5074158;28;20032;-61
2021/03/02 08:45:42;;;;;;;5.15;2.95;;;17.30;55.00;;;;;;5073068;28;20029;-61
2021/03/02 08:48:28;;;;;;;4.25;3.35;;;17.40;54.90;;;;;;5074183;28;20298;-61
2021/03/02 08:50:56;;;;;;;5.00;3.42;;;17.80;55.50;;;;;;5074050;28;20112;-62
2021/03/02 08:53:32;;;;;;;6.25;3.75;;;17.60;54.40;;;;;;5074146;28;20021;-61
2021/03/02 08:55:59;;;;;;;5.20;3.67;;;17.60;54.30;;;;;;5074178;28;20082;-61
2021/03/02 08:58:26;;;;;;;6.32;4.25;;;17.50;54.30;;;;;;5074137;28;20039;-61
2021/03/02 09:01:01;;;;;;;4.93;3.97;;;17.60;54.30;;;;;;5074048;28;20021;-61
2021/03/02 09:03:26;;;;;;;7.13;3.65;;;17.70;54.30;;;;;;5074012;28;20032;-62
2021/03/02 09:06:10;;;;;;;4.70;3.80;;;17.70;54.60;;;;;;5073822;28;20025;-61
2021/03/02 09:08:50;;;;;;;5.03;3.42;;;17.80;53.50;;;;;;5074235;27;20057;-62
2021/03/02 09:11:18;;;;;;;6.20;4.03;;;17.80;53.50;;;;;;5055891;28;20016;-62
2021/03/02 09:13:43;;;;;;;6.22;4.00;;;17.80;54.30;;;;;;5073944;28;20024;-62
2021/03/02 09:16:35;;;;;;;5.55;3.53;;;17.70;53.70;;;;;;5073668;28;20020;-61
2021/03/02 09:19:16;;;;;;;4.93;3.78;;;17.70;54.60;;;;;;5073914;28;20021;-61
2021/03/02 09:21:45;;;;;;;5.28;3.63;;;17.70;54.10;;;;;;5073620;28;20263;-61
2021/03/02 09:24:19;;;;;;;4.78;3.75;;;17.60;54.10;;;;;;5073538;28;20190;-61
2021/03/02 09:26:58;;;;;;;4.63;3.17;;;17.60;54.20;;;;;;5073035;28;20028;-62
2021/03/02 09:29:26;;;;;;;4.82;3.38;;;17.60;55.00;;;;;;5073401;28;20036;-61
2021/03/02 09:31:55;;;;;;;4.75;3.65;;;17.60;54.40;;;;;;5072438;28;20027;-62
2021/03/02 09:34:29;;;;;;;4.20;3.17;;;17.60;54.50;;;;;;5055230;28;20383;-61
2021/03/02 09:36:56;;;;;;;4.85;3.15;;;17.80;54.70;;;;;;5073392;28;20029;-61
2021/03/02 09:39:26;;;;;;;4.57;3.25;;;17.60;54.60;;;;;;5073291;28;20172;-62
2021/03/02 09:41:52;;;;;;;3.28;2.95;;;17.60;54.60;;;;;;5073428;28;20107;-61
2021/03/02 09:44:31;;;;;;;4.80;3.22;;;17.60;54.60;;;;;;5073168;28;20495;-61
2021/03/02 09:47:00;;;;;;;4.70;2.97;;;17.60;54.60;;;;;;5073315;28;20029;-62
2021/03/02 09:49:39;;;;;;;4.18;3.20;;;17.60;54.60;;;;;;5072699;28;20031;-61
2021/03/02 09:52:22;;;;;;;3.93;3.10;;;17.60;55.30;;;;;;5072889;28;20013;-62
2021/03/02 09:55:14;;;;;;;3.45;2.83;;;17.60;55.20;;;;;;5072903;28;20638;-61
2021/03/02 09:57:57;;;;;;;3.95;2.80;;;17.70;54.60;;;;;;5034302;28;20064;-62
2021/03/02 10:00:24;;;;;;;3.50;2.70;;;17.70;54.50;;;;;;5072643;28;20031;-61
2021/03/02 10:02:52;;;;;;;3.33;2.67;;;17.70;54.50;;;;;;5072487;28;20021;-61
2021/03/02 10:05:56;;;;;;;3.70;2.67;;;17.70;54.40;;;;;;5072606;28;20074;-61
2021/03/02 10:08:35;;;;;;;2.45;2.25;;;17.80;54.50;;;;;;5073627;28;20033;-61
2021/03/02 10:11:12;;;;;;;3.42;2.63;;;17.80;54.40;;;;;;5072584;28;20115;-61
2021/03/02 10:13:40;;;;;;;4.50;2.55;;;17.80;54.40;;;;;;5055792;28;20039;-62
2021/03/02 10:16:27;;;;;;;3.08;2.58;;;17.80;54.40;;;;;;5072447;28;20017;-61
2021/03/02 10:18:57;;;;;;;2.42;2.22;;;17.80;54.30;;;;;;5072173;28;20553;-62
2021/03/02 10:21:26;;;;;;;4.13;2.65;;;17.80;54.20;;;;;;5072265;28;20379;-62
2021/03/02 10:23:57;;;;;;;3.72;2.45;;;17.80;54.20;;;;;;5054238;28;20082;-62
2021/03/02 10:26:32;;;;;;;5.15;3.05;;;17.90;54.20;;;;;;5072189;28;20024;-62
2021/03/02 10:28:59;;;;;;;4.10;3.15;;;17.90;54.20;;;;;;5072427;28;20079;-62
2021/03/02 10:31:25;;;;;;;2.67;2.22;;;17.90;54.10;;;;;;5072387;28;20017;-62
2021/03/02 10:33:51;;;;;;;3.65;2.95;;;18.10;54.20;;;;;;5072043;28;20035;-62
2021/03/02 10:36:21;;;;;;;2.38;2.17;;;17.90;54.00;;;;;;5072007;28;20033;-62
2021/03/02 10:38:47;;;;;;;2.83;2.30;;;17.80;54.00;;;;;;5072309;28;20024;-62
2021/03/02 10:41:13;;;;;;;2.78;2.42;;;17.90;54.00;;;;;;5072277;28;20035;-61
2021/03/02 10:43:38;;;;;;;3.33;2.50;;;17.90;54.10;;;;;;5071967;28;20017;-62
2021/03/02 10:46:04;;;;;;;4.05;2.55;;;17.90;54.00;;;;;;5072023;28;20024;-62
2021/03/02 10:48:29;;;;;;;3.05;2.40;;;17.90;54.00;;;;;;5071812;28;20368;-62
2021/03/02 10:50:55;;;;;;;3.75;2.50;;;18.00;54.10;;;;;;5072179;28;20226;-61
2021/03/02 10:53:21;;;;;;;3.67;2.63;;;17.90;54.00;;;;;;5071926;28;20020;-62
2021/03/02 10:55:46;;;;;;;3.22;2.35;;;17.90;54.00;;;;;;5071952;28;20082;-62
2021/03/02 10:58:12;;;;;;;4.97;2.40;;;17.90;54.00;;;;;;5071571;28;20036;-62
2021/03/02 11:00:37;;;;;;;4.22;2.45;;;17.90;54.00;;;;;;5053588;28;20039;-62
2021/03/02 11:03:04;;;;;;;2.15;1.92;;;17.90;54.00;;;;;;5072052;28;20017;-62
2021/03/02 11:05:30;;;;;;;2.50;2.00;;;17.90;54.00;;;;;;5071789;28;20056;-62
2021/03/02 11:07:55;;;;;;;3.20;2.50;;;17.90;54.00;;;;;;5071457;28;20061;-62
2021/03/02 11:10:21;;;;;;;3.30;2.38;;;17.90;54.00;;;;;;5072857;28;20072;-61
2021/03/02 11:12:46;;;;;;;2.90;2.10;;;17.90;53.90;;;;;;5071631;28;20025;-61
2021/03/02 11:15:13;;;;;;;3.15;2.75;;;17.90;54.00;;;;;;5071821;28;20429;-62
2021/03/02 11:17:39;;;;;;;2.60;2.40;;;17.90;54.00;;;;;;5071904;28;20021;-62
2021/03/02 11:20:06;;;;;;;2.58;2.20;;;17.90;54.10;;;;;;5071926;28;20021;-62
2021/03/02 11:22:31;;;;;;;2.70;1.98;;;17.90;72.20;;;;;;5071031;28;20094;-62
2021/03/02 11:24:57;;;;;;;2.60;2.10;;;17.90;54.00;;;;;;5072143;28;20028;-62
2021/03/02 11:27:23;;;;;;;2.40;2.15;;;17.90;54.00;;;;;;5071595;28;20025;-62
2021/03/02 11:29:48;;;;;;;3.45;2.60;;;17.90;54.10;;;;;;5071481;28;20482;-62
2021/03/02 11:32:14;;;;;;;2.78;2.13;;;17.80;54.00;;;;;;5071491;28;20025;-62
2021/03/02 11:34:39;;;;;;;2.90;1.73;;;17.80;54.10;;;;;;5071530;28;20025;-62
2021/03/02 11:37:05;;;;;;;4.28;2.40;;;17.80;54.10;;;;;;5053567;28;20027;-62
2021/03/02 11:39:31;;;;;;;2.97;2.22;;;17.80;54.20;;;;;;5071654;28;20021;-61
2021/03/02 11:41:56;;;;;;;3.50;2.42;;;17.80;54.30;;;;;;5053488;28;20020;-61
2021/03/02 11:44:22;;;;;;;2.10;1.90;;;17.80;54.40;;;;;;5071681;28;20466;-62
2021/03/02 11:46:48;;;;;;;3.40;2.35;;;17.80;54.40;;;;;;5071325;28;20505;-61
2021/03/02 11:49:13;;;;;;;4.72;2.33;;;17.80;54.50;;;;;;5071266;28;20489;-62
2021/03/02 11:51:39;;;;;;;3.25;2.40;;;17.70;54.50;;;;;;5071413;28;20025;-61
2021/03/02 11:54:05;;;;;;;2.67;2.17;;;17.70;54.50;;;;;;5071316;28;20047;-61
2021/03/02 11:56:30;;;;;;;2.67;2.00;;;17.70;54.60;;;;;;5074333;28;20024;-61
2021/03/02 11:58:56;;;;;;;2.15;1.95;;;17.40;72.90;;;;;;5074884;28;20491;-61
2021/03/02 12:01:22;;;;;;;3.17;2.38;;;17.70;54.70;;;;;;5056849;28;20067;-62
2021/03/02 12:03:47;;;;;;;2.47;2.25;;;17.70;54.70;;;;;;5074999;28;20033;-61
2021/03/02 12:06:13;;;;;;;3.08;2.47;;;17.60;54.70;;;;;;5074772;28;20103;-61
2021/03/02 12:08:39;;;;;;;3.15;2.47;;;17.60;54.70;;;;;;5076209;27;20037;-61
2021/03/02 12:11:04;;;;;;;2.15;1.95;;;17.60;54.80;;;;;;5074980;28;20037;-62
2021/03/02 12:13:30;;;;;;;4.78;2.30;;;17.50;54.80;;;;;;5074864;28;20025;-62
2021/03/02 12:15:56;;;;;;;3.45;2.30;;;17.90;55.10;;;;;;5074784;28;20017;-62
2021/03/02 12:18:22;;;;;;;3.42;2.30;;;17.50;54.90;;;;;;5074767;28;20021;-62
2021/03/02 12:20:48;;;;;;;5.65;2.15;;;17.50;54.90;;;;;;5074714;28;20032;-61
2021/03/02 12:23:13;;;;;;;3.85;2.25;;;17.50;55.00;;;;;;5056825;28;20020;-61
2021/03/02 12:25:39;;;;;;;2.95;2.22;;;17.40;55.00;;;;;;5074482;28;20494;-61
2021/03/02 12:28:10;;;;;;;2.90;2.00;;;17.40;55.10;;;;;;5074602;28;20074;-62
2021/03/02 12:30:36;;;;;;;3.45;2.42;;;17.40;55.70;;;;;;5074437;28;20037;-61
2021/03/02 12:33:02;;;;;;;3.95;2.53;;;17.30;55.00;;;;;;5074318;28;20100;-61
2021/03/02 12:35:28;;;;;;;4.32;2.70;;;17.30;55.00;;;;;;5074162;28;20064;-62
2021/03/02 12:37:54;;;;;;;3.67;1.90;;;17.30;55.10;;;;;;5074372;28;20067;-61
2021/03/02 12:40:20;;;;;;;2.40;2.03;;;17.30;55.10;;;;;;5074345;28;20028;-62
2021/03/02 12:42:45;;;;;;;2.90;2.30;;;17.20;73.70;;;;;;5074137;28;20032;-62
2021/03/02 12:45:12;;;;;;;3.20;2.55;;;17.20;55.20;;;;;;5055857;28;20043;-62
2021/03/02 12:47:37;;;;;;;2.65;2.17;;;17.20;55.80;;;;;;5074176;28;20481;-62
2021/03/02 12:50:08;;;;;;;2.88;2.05;;;17.20;55.20;;;;;;5074094;28;20044;-62
2021/03/02 12:52:34;;;;;;;2.42;2.22;;;17.20;55.30;;;;;;5074415;28;20063;-62
2021/03/02 12:55:00;;;;;;;4.03;2.50;;;17.10;55.20;;;;;;5073797;28;20024;-62
2021/03/02 12:57:26;;;;;;;3.30;2.45;;;17.10;55.20;;;;;;5073796;28;20020;-61
2021/03/02 12:59:51;;;;;;;4.78;2.35;;;17.10;55.30;;;;;;5074176;28;20052;-62